Time;durP1;ratioP1;P1;durP2;ratioP2;P2;SDS_P1;SDS_P2;PMS_P1;PMS_P2;Temp;Humidity;BMP_temperature;BMP_pressure;BME280_temperature;BME280_humidity;BME280_pressure;Samples;Min_cycle;Max_cycle;Signal;HPM_P1;HPM_P2
2022/09/03 00:00:53;;;;;;;2.42;1.13;;;20.30;57.60;;;;;;5057798;28;20119;-89
2022/09/03 00:03:44;;;;;;;4.10;1.52;;;20.30;57.70;;;;;;5058847;28;20024;-90
2022/09/03 00:06:19;;;;;;;2.88;1.20;;;20.20;58.00;;;;;;5057773;28;20079;-90
2022/09/03 00:09:04;;;;;;;1.33;0.82;;;20.10;58.10;;;;;;5058446;28;20025;-91
2022/09/03 00:11:37;;;;;;;2.45;0.98;;;20.10;58.10;;;;;;5042864;28;20025;-91
2022/09/03 00:14:09;;;;;;;1.80;0.90;;;20.10;58.10;;;;;;5058826;28;20035;-90
2022/09/03 00:16:54;;;;;;;3.72;1.30;;;20.10;58.20;;;;;;5058860;28;20116;-90
2022/09/03 00:19:31;;;;;;;1.63;1.15;;;20.00;58.20;;;;;;5058706;28;20086;-91
2022/09/03 00:22:08;;;;;;;1.73;1.20;;;20.10;58.30;;;;;;5058964;28;20075;-90
2022/09/03 00:24:40;;;;;;;2.22;1.20;;;20.00;58.20;;;;;;5062120;28;20027;-90
2022/09/03 00:27:17;;;;;;;3.90;1.60;;;20.10;58.40;;;;;;5068473;28;20025;-91
2022/09/03 00:29:58;;;;;;;3.20;1.42;;;20.10;58.40;;;;;;5064409;28;20052;-91
2022/09/03 00:32:49;;;;;;;2.05;1.10;;;20.00;58.40;;;;;;5063235;28;20063;-91
2022/09/03 00:35:26;;;;;;;1.55;1.25;;;20.00;58.60;;;;;;5078443;28;20021;-90
2022/09/03 00:37:56;;;;;;;2.70;1.10;;;20.00;58.60;;;;;;5081279;28;20009;-91
2022/09/03 00:40:59;;;;;;;3.00;1.35;;;19.90;58.70;;;;;;5081028;28;20029;-90
2022/09/03 00:43:45;;;;;;;3.10;1.10;;;19.90;58.70;;;;;;5080850;28;20040;-88
2022/09/03 00:46:40;;;;;;;3.78;1.10;;;19.90;58.80;;;;;;5079207;28;20124;-91
2022/09/03 00:49:47;;;;;;;3.30;1.40;;;19.90;58.90;;;;;;5079586;28;20008;-90
2022/09/03 00:52:44;;;;;;;2.45;1.30;;;19.90;58.80;;;;;;5093644;28;20075;-91
2022/09/03 00:55:38;;;;;;;1.58;1.08;;;19.80;59.00;;;;;;5064924;28;20021;-90
2022/09/03 00:58:26;;;;;;;1.85;1.20;;;19.80;59.10;;;;;;5061671;28;20021;-90
2022/09/03 01:00:52;;;;;;;2.70;1.15;;;19.80;59.20;;;;;;5061695;28;20070;-89
2022/09/03 01:03:42;;;;;;;2.08;1.05;;;19.70;59.30;;;;;;5044344;28;20123;-90
2022/09/03 01:07:08;;;;;;;1.90;1.08;;;19.70;59.40;;;;;;5060846;28;20037;-90
2022/09/03 01:10:15;;;;;;;2.10;1.25;;;19.60;59.40;;;;;;5025907;28;20579;-89
2022/09/03 01:12:58;;;;;;;2.63;1.08;;;19.60;59.60;;;;;;5022472;28;20037;-91
2022/09/03 01:15:47;;;;;;;1.80;1.02;;;19.60;59.60;;;;;;5060981;28;20031;-89
2022/09/03 01:18:47;;;;;;;2.17;1.20;;;19.60;59.70;;;;;;5061367;28;20025;-91
2022/09/03 01:21:37;;;;;;;2.90;1.17;;;19.50;59.80;;;;;;5060979;28;20123;-89
2022/09/03 01:24:16;;;;;;;1.90;1.05;;;19.50;59.90;;;;;;5078697;28;20043;-89
2022/09/03 01:26:55;;;;;;;2.83;1.33;;;19.40;60.00;;;;;;5060913;28;20426;-91
2022/09/03 01:29:31;;;;;;;1.88;1.15;;;19.40;60.10;;;;;;5061017;28;20060;-89
2022/09/03 01:32:05;;;;;;;1.70;0.98;;;19.40;60.10;;;;;;5078429;28;20021;-90
2022/09/03 01:34:40;;;;;;;2.25;1.40;;;19.30;60.10;;;;;;5061338;28;20025;-89
2022/09/03 01:37:28;;;;;;;1.48;1.15;;;19.30;60.30;;;;;;5060750;28;20020;-92
2022/09/03 01:40:33;;;;;;;2.58;1.10;;;19.30;60.40;;;;;;5060774;28;20045;-93
2022/09/03 01:43:09;;;;;;;1.88;0.90;;;19.30;60.40;;;;;;5060431;28;20087;-91
2022/09/03 01:46:13;;;;;;;3.30;1.27;;;19.30;60.40;;;;;;5061985;28;20039;-90
2022/09/03 01:49:10;;;;;;;1.75;1.27;;;19.20;60.50;;;;;;5049758;28;20086;-92
2022/09/03 01:51:40;;;;;;;2.58;1.23;;;19.10;60.60;;;;;;5064252;28;20130;-91
2022/09/03 01:54:26;;;;;;;1.98;1.10;;;19.10;60.70;;;;;;5062883;28;20119;-90
2022/09/03 01:57:26;;;;;;;2.05;1.10;;;19.10;60.80;;;;;;5081263;28;20029;-89
2022/09/03 02:00:07;;;;;;;3.53;1.33;;;19.00;61.00;;;;;;5062991;28;20491;-89
2022/09/03 02:02:35;;;;;;;1.25;0.82;;;19.00;61.00;;;;;;5062933;28;20046;-89
2022/09/03 02:05:27;;;;;;;2.60;1.27;;;18.90;61.00;;;;;;5063248;28;20059;-91
2022/09/03 02:08:04;;;;;;;3.15;1.20;;;18.90;61.20;;;;;;5046080;28;20036;-92
2022/09/03 02:10:45;;;;;;;2.03;1.25;;;18.90;61.20;;;;;;5062530;28;20028;-90
2022/09/03 02:13:17;;;;;;;2.47;1.20;;;18.80;61.30;;;;;;5083127;28;20067;-89
2022/09/03 02:15:50;;;;;;;3.60;1.30;;;18.80;61.30;;;;;;5082685;28;20021;-92
2022/09/03 02:18:40;;;;;;;1.98;1.33;;;18.80;61.40;;;;;;5081370;28;20202;-91
2022/09/03 02:21:09;;;;;;;4.05;1.30;;;18.70;61.60;;;;;;5062970;28;20039;-89
2022/09/03 02:23:44;;;;;;;1.40;1.20;;;18.70;61.60;;;;;;5063165;28;20070;-88
2022/09/03 02:26:11;;;;;;;1.55;1.10;;;18.80;61.70;;;;;;5064082;28;20021;-90
2022/09/03 02:28:39;;;;;;;2.40;1.48;;;18.70;61.50;;;;;;5063586;28;20055;-89
2022/09/03 02:31:07;;;;;;;1.38;1.10;;;18.70;61.60;;;;;;5048205;28;20499;-90
2022/09/03 02:33:42;;;;;;;3.58;1.40;;;18.70;61.70;;;;;;5047869;28;20033;-88
2022/09/03 02:36:16;;;;;;;3.90;1.40;;;18.70;61.70;;;;;;5082520;28;20080;-90
2022/09/03 02:38:43;;;;;;;1.98;1.30;;;18.70;61.80;;;;;;5082088;28;20096;-90
2022/09/03 02:41:12;;;;;;;1.70;1.27;;;18.60;61.90;;;;;;5081771;28;20096;-90
2022/09/03 02:43:48;;;;;;;2.15;1.10;;;18.60;62.00;;;;;;5072366;28;20116;-91
2022/09/03 02:46:26;;;;;;;3.65;1.33;;;18.60;62.10;;;;;;5065889;28;20051;-90
2022/09/03 02:48:53;;;;;;;2.35;1.20;;;18.50;62.10;;;;;;5064952;28;20074;-89
2022/09/03 02:51:19;;;;;;;1.70;1.17;;;18.50;62.20;;;;;;5083183;28;20020;-91
2022/09/03 02:53:45;;;;;;;2.35;1.40;;;18.40;62.90;;;;;;5065362;28;20065;-91
2022/09/03 02:56:11;;;;;;;2.78;1.55;;;18.40;62.40;;;;;;5048569;28;20020;-90
2022/09/03 02:58:37;;;;;;;1.60;1.10;;;18.50;62.40;;;;;;5049586;28;20487;-90
2022/09/03 03:01:07;;;;;;;2.88;1.02;;;18.50;62.30;;;;;;5065390;28;20024;-91
2022/09/03 03:03:36;;;;;;;2.65;1.25;;;18.50;62.30;;;;;;5065433;28;20487;-90
2022/09/03 03:06:06;;;;;;;3.55;1.33;;;18.50;62.30;;;;;;5065274;28;20519;-90
2022/09/03 03:08:33;;;;;;;1.77;1.30;;;18.40;62.30;;;;;;5063116;28;20044;-90
2022/09/03 03:11:00;;;;;;;2.08;1.30;;;18.40;62.40;;;;;;5047161;28;20028;-91
2022/09/03 03:13:29;;;;;;;2.83;1.20;;;18.40;62.40;;;;;;5045850;28;20036;-90
2022/09/03 03:15:57;;;;;;;2.30;1.38;;;18.40;62.40;;;;;;5063073;28;20036;-89
2022/09/03 03:18:23;;;;;;;1.63;1.08;;;18.40;62.50;;;;;;5062994;28;20116;-91
2022/09/03 03:20:49;;;;;;;2.90;1.33;;;18.40;62.60;;;;;;5081422;28;20024;-91
2022/09/03 03:23:15;;;;;;;1.55;1.30;;;18.30;62.70;;;;;;5080476;28;20028;-91
2022/09/03 03:25:46;;;;;;;2.55;1.08;;;18.20;62.80;;;;;;5062759;28;20020;-90
2022/09/03 03:28:14;;;;;;;3.83;1.40;;;18.20;63.00;;;;;;5062565;28;20367;-89
2022/09/03 03:30:41;;;;;;;2.65;1.38;;;18.20;62.90;;;;;;5062537;28;20099;-91
2022/09/03 03:33:08;;;;;;;2.10;1.20;;;18.20;63.00;;;;;;5061690;28;20539;-92
2022/09/03 03:35:36;;;;;;;2.80;1.33;;;18.20;63.10;;;;;;5062081;28;20488;-90
2022/09/03 03:38:04;;;;;;;3.53;1.20;;;18.20;63.20;;;;;;5061860;28;20024;-91
2022/09/03 03:40:33;;;;;;;2.17;1.13;;;18.10;63.10;;;;;;5062412;28;20023;-90
2022/09/03 03:42:59;;;;;;;1.33;1.00;;;18.10;63.10;;;;;;5062372;28;20115;-90
2022/09/03 03:45:27;;;;;;;1.92;1.10;;;18.10;63.20;;;;;;5061862;28;20071;-91
2022/09/03 03:47:57;;;;;;;2.75;1.30;;;18.10;63.30;;;;;;5062026;28;20024;-91
2022/09/03 03:50:41;;;;;;;1.40;1.00;;;18.10;63.30;;;;;;5061153;28;20055;-88
2022/09/03 03:53:07;;;;;;;0.90;0.90;;;18.10;63.30;;;;;;5047769;28;20033;-91
2022/09/03 03:55:35;;;;;;;2.78;1.15;;;18.10;63.20;;;;;;5061560;28;20031;-89
2022/09/03 03:58:02;;;;;;;1.35;1.13;;;18.20;63.20;;;;;;5062047;28;20024;-89
2022/09/03 04:00:28;;;;;;;0.98;0.93;;;18.20;63.20;;;;;;5062174;28;20028;-93
2022/09/03 04:02:54;;;;;;;1.10;1.00;;;18.10;63.20;;;;;;5061104;28;20036;-91
2022/09/03 04:05:19;;;;;;;4.70;1.10;;;18.10;63.20;;;;;;5062583;28;20480;-89
2022/09/03 04:07:52;;;;;;;2.58;1.38;;;18.10;63.30;;;;;;5063799;28;20024;-90
2022/09/03 04:10:18;;;;;;;2.38;1.10;;;18.00;63.50;;;;;;5071176;28;20056;-91
2022/09/03 04:12:45;;;;;;;1.98;1.23;;;18.00;63.40;;;;;;5071046;28;20033;-90
2022/09/03 04:15:11;;;;;;;3.63;1.30;;;18.00;63.50;;;;;;5051976;28;20021;-89
2022/09/03 04:17:38;;;;;;;1.92;1.50;;;18.00;63.60;;;;;;5064072;28;20499;-91
2022/09/03 04:20:09;;;;;;;2.33;1.10;;;17.90;63.60;;;;;;5063444;28;20020;-88
2022/09/03 04:22:35;;;;;;;1.88;1.13;;;18.00;63.70;;;;;;5082893;28;20059;-87
2022/09/03 04:25:01;;;;;;;2.65;1.17;;;18.00;63.60;;;;;;5068091;28;20028;-87
2022/09/03 04:27:27;;;;;;;1.00;0.80;;;18.00;63.60;;;;;;5074502;28;20029;-89
2022/09/03 04:29:52;;;;;;;2.13;1.40;;;17.90;63.70;;;;;;5061914;28;20024;-92
2022/09/03 04:35:02;;;;;;;2.08;0.93;;;17.80;63.80;;;;;;5096685;28;20055;-87
2022/09/03 04:37:28;;;;;;;1.52;1.05;;;17.80;63.80;;;;;;5078728;28;20032;-88
2022/09/03 04:39:54;;;;;;;1.30;1.02;;;17.80;63.90;;;;;;5078047;28;20047;-90
2022/09/03 04:42:19;;;;;;;2.58;1.10;;;17.80;63.90;;;;;;5060621;28;20062;-87
2022/09/03 04:44:45;;;;;;;2.20;1.30;;;17.80;64.00;;;;;;5065271;28;20033;-88
2022/09/03 04:47:11;;;;;;;2.35;1.40;;;17.80;64.10;;;;;;5056701;28;20043;-87
2022/09/03 04:49:39;;;;;;;3.03;1.45;;;17.70;64.10;;;;;;5056708;28;20029;-87
2022/09/03 04:52:08;;;;;;;3.58;1.20;;;17.70;64.20;;;;;;5056529;28;20033;-88
2022/09/03 04:54:37;;;;;;;2.80;1.38;;;17.70;64.30;;;;;;5056059;28;20031;-86
2022/09/03 04:57:03;;;;;;;1.92;1.23;;;17.70;64.40;;;;;;5055767;28;20083;-88
2022/09/03 04:59:42;;;;;;;1.75;1.23;;;17.60;64.50;;;;;;5039295;28;20052;-88
2022/09/03 05:02:09;;;;;;;2.55;0.95;;;17.60;64.50;;;;;;5056070;28;20427;-87
2022/09/03 05:04:40;;;;;;;3.10;1.20;;;17.60;64.60;;;;;;5055061;28;20052;-87
2022/09/03 05:07:06;;;;;;;1.95;1.13;;;17.50;64.70;;;;;;5055251;28;20040;-87
2022/09/03 05:09:32;;;;;;;2.25;1.30;;;17.50;64.60;;;;;;5073471;28;20078;-87
2022/09/03 05:11:57;;;;;;;1.73;0.98;;;17.50;64.60;;;;;;5055423;28;20448;-87
2022/09/03 05:14:26;;;;;;;2.05;1.10;;;17.50;64.60;;;;;;5055285;28;20143;-88
2022/09/03 05:16:58;;;;;;;2.92;1.20;;;17.50;64.70;;;;;;5050958;28;20119;-88
2022/09/03 05:19:24;;;;;;;2.45;0.90;;;17.50;64.80;;;;;;5055342;28;20487;-87
2022/09/03 05:21:53;;;;;;;3.05;1.17;;;17.50;64.70;;;;;;5058170;28;20033;-87
2022/09/03 05:24:20;;;;;;;4.43;1.63;;;17.50;64.80;;;;;;5076692;28;20388;-86
2022/09/03 05:26:46;;;;;;;2.83;1.13;;;17.50;64.90;;;;;;5059436;28;20024;-88
2022/09/03 05:29:14;;;;;;;2.33;1.30;;;17.50;64.90;;;;;;5059060;28;20048;-86
2022/09/03 05:31:43;;;;;;;3.25;1.08;;;17.50;64.90;;;;;;5059238;28;20028;-87
2022/09/03 05:34:09;;;;;;;1.98;1.27;;;17.50;64.90;;;;;;5059015;28;20056;-87
2022/09/03 05:36:41;;;;;;;2.47;1.20;;;17.50;64.90;;;;;;5058609;28;20115;-86
2022/09/03 05:39:10;;;;;;;5.03;1.08;;;17.50;65.00;;;;;;5042267;28;20032;-87
2022/09/03 05:44:22;;;;;;;3.53;1.20;;;17.40;65.30;;;;;;5076336;28;20029;-87
2022/09/03 05:46:52;;;;;;;4.07;1.58;;;17.40;65.20;;;;;;5058891;28;20115;-86
2022/09/03 05:49:18;;;;;;;2.35;0.90;;;17.50;65.20;;;;;;5058474;28;20120;-87
2022/09/03 05:51:47;;;;;;;2.92;1.10;;;17.50;65.20;;;;;;5041154;28;20060;-87
2022/09/03 05:54:23;;;;;;;2.13;1.00;;;17.50;65.30;;;;;;5058276;28;20413;-87
2022/09/03 05:56:59;;;;;;;2.95;1.17;;;17.50;65.40;;;;;;5059296;28;20325;-87
2022/09/03 05:59:30;;;;;;;2.17;1.17;;;17.50;65.40;;;;;;5043193;28;20029;-87
2022/09/03 06:01:56;;;;;;;1.95;0.80;;;17.50;65.40;;;;;;5059347;28;20127;-88
2022/09/03 06:04:27;;;;;;;2.50;1.20;;;17.50;65.90;;;;;;5058633;28;20064;-86
2022/09/03 06:06:55;;;;;;;1.42;0.90;;;17.60;65.20;;;;;;5059464;28;20020;-89
2022/09/03 06:09:23;;;;;;;0.93;0.82;;;17.60;65.20;;;;;;5077451;28;20020;-87
2022/09/03 06:11:49;;;;;;;3.47;1.05;;;17.60;65.30;;;;;;5059381;28;20301;-87
2022/09/03 06:14:16;;;;;;;3.33;1.20;;;17.60;65.30;;;;;;5060239;28;20020;-85
2022/09/03 06:16:51;;;;;;;1.80;1.10;;;17.50;65.30;;;;;;5050907;28;20025;-87
2022/09/03 06:19:19;;;;;;;1.70;1.02;;;17.50;65.60;;;;;;5060881;28;20036;-86
2022/09/03 06:21:51;;;;;;;2.00;1.20;;;17.50;65.80;;;;;;5076017;28;20040;-87
2022/09/03 06:24:26;;;;;;;2.20;1.17;;;17.50;65.80;;;;;;5082078;28;20019;-87
2022/09/03 06:26:52;;;;;;;1.67;0.90;;;17.50;65.80;;;;;;5064554;28;20009;-90
2022/09/03 06:29:19;;;;;;;2.00;1.17;;;17.60;65.70;;;;;;5080150;28;20100;-88
2022/09/03 06:31:47;;;;;;;1.75;1.08;;;17.60;65.60;;;;;;5076887;28;20035;-85
2022/09/03 06:34:13;;;;;;;1.65;1.10;;;17.60;65.70;;;;;;5059564;28;20029;-87
2022/09/03 06:36:42;;;;;;;1.40;1.02;;;17.50;65.80;;;;;;5059135;28;20059;-88
2022/09/03 06:39:15;;;;;;;2.90;0.98;;;17.40;66.00;;;;;;5058124;28;20063;-86
2022/09/03 06:41:41;;;;;;;1.05;0.75;;;17.40;66.30;;;;;;5077372;28;20040;-87
2022/09/03 06:44:10;;;;;;;2.28;0.93;;;17.50;66.40;;;;;;5075980;28;20024;-87
2022/09/03 06:46:37;;;;;;;1.48;0.75;;;17.50;66.30;;;;;;5076532;28;20498;-82
2022/09/03 06:49:04;;;;;;;3.63;1.05;;;17.50;66.30;;;;;;5057031;28;20032;-83
2022/09/03 06:51:32;;;;;;;4.95;0.98;;;17.60;66.20;;;;;;5057278;28;20028;-82
2022/09/03 06:54:03;;;;;;;2.78;1.20;;;17.70;66.20;;;;;;5075437;28;20107;-82
2022/09/03 06:56:29;;;;;;;1.23;1.02;;;17.80;66.20;;;;;;5056862;28;20025;-80
2022/09/03 06:59:03;;;;;;;1.98;1.02;;;17.80;66.00;;;;;;5040414;28;20490;-80
2022/09/03 07:01:31;;;;;;;2.35;1.00;;;17.90;65.90;;;;;;5074770;28;20060;-82
2022/09/03 07:04:02;;;;;;;2.42;0.90;;;17.90;65.90;;;;;;5056445;28;20059;-85
2022/09/03 07:06:30;;;;;;;;;;;18.00;65.90;;;;;;5075156;28;20052;-83
2022/09/03 07:08:58;;;;;;;3.40;0.90;;;18.10;65.80;;;;;;5057024;28;19909;-82
2022/09/03 07:11:28;;;;;;;2.67;0.77;;;18.10;65.60;;;;;;5057395;28;20025;-83
2022/09/03 07:13:54;;;;;;;1.63;1.00;;;18.30;65.60;;;;;;5074961;28;20029;-82
2022/09/03 07:16:26;;;;;;;1.40;0.80;;;18.40;65.50;;;;;;5074326;28;20052;-82
2022/09/03 07:18:51;;;;;;;2.58;0.70;;;18.50;65.40;;;;;;5074535;28;20064;-82
2022/09/03 07:21:20;;;;;;;2.05;1.00;;;18.60;65.30;;;;;;5074299;28;20032;-82
2022/09/03 07:23:47;;;;;;;1.63;1.00;;;18.70;65.80;;;;;;5056394;28;20036;-83
2022/09/03 07:26:16;;;;;;;2.10;1.05;;;18.80;65.10;;;;;;5038930;28;20134;-81
2022/09/03 07:28:42;;;;;;;1.92;1.00;;;18.80;65.10;;;;;;5052498;28;20041;-82
2022/09/03 07:31:21;;;;;;;2.70;1.35;;;18.90;65.00;;;;;;5036383;28;20082;-82
2022/09/03 07:33:47;;;;;;;2.38;1.55;;;19.00;65.00;;;;;;5052911;28;20025;-82
2022/09/03 07:36:15;;;;;;;3.47;1.27;;;18.90;65.00;;;;;;5036190;28;20472;-82
2022/09/03 07:38:43;;;;;;;5.22;1.17;;;19.00;65.10;;;;;;5052926;28;20460;-82
2022/09/03 07:41:13;;;;;;;1.67;0.90;;;19.10;65.10;;;;;;5054149;28;20463;-82
2022/09/03 07:43:47;;;;;;;1.08;0.98;;;19.10;65.00;;;;;;5051783;28;20066;-82
2022/09/03 07:46:23;;;;;;;3.20;1.00;;;19.20;64.90;;;;;;5052659;28;20493;-83
2022/09/03 07:48:54;;;;;;;2.30;1.02;;;19.30;64.90;;;;;;5052569;28;20534;-83
2022/09/03 07:51:25;;;;;;;1.48;0.80;;;19.40;64.80;;;;;;5052575;28;20036;-82
2022/09/03 07:53:52;;;;;;;;;;;19.40;64.50;;;;;;5054730;28;20033;-82
2022/09/03 07:56:18;;;;;;;2.13;0.80;;;19.50;64.30;;;;;;5053208;28;19905;-83
2022/09/03 07:58:44;;;;;;;1.50;0.98;;;19.50;64.20;;;;;;5053266;28;20495;-84
2022/09/03 08:01:12;;;;;;;1.77;0.88;;;19.60;64.20;;;;;;5053204;28;20032;-84
2022/09/03 08:03:41;;;;;;;1.30;0.80;;;19.60;63.80;;;;;;5053149;28;20028;-86
2022/09/03 08:06:15;;;;;;;1.30;0.75;;;19.80;63.90;;;;;;5070752;28;20025;-84
2022/09/03 08:08:45;;;;;;;1.70;1.00;;;19.90;64.00;;;;;;5055677;28;20025;-84
2022/09/03 08:11:16;;;;;;;1.58;0.80;;;20.00;63.70;;;;;;5042597;28;20029;-85
2022/09/03 08:13:47;;;;;;;1.30;0.80;;;20.10;64.10;;;;;;5075468;28;20476;-85
2022/09/03 08:16:17;;;;;;;1.83;0.90;;;20.20;63.30;;;;;;5074335;28;20025;-85
2022/09/03 08:18:45;;;;;;;1.63;1.05;;;20.30;62.90;;;;;;5069906;28;20025;-83
2022/09/03 08:21:18;;;;;;;2.03;0.60;;;20.40;62.80;;;;;;5073724;28;20032;-94
2022/09/03 08:23:50;;;;;;;4.05;1.13;;;20.40;62.70;;;;;;5076659;28;20044;-85
2022/09/03 08:26:17;;;;;;;2.50;1.10;;;20.50;63.10;;;;;;5075935;28;20033;-90
2022/09/03 08:28:43;;;;;;;1.85;1.20;;;20.60;62.40;;;;;;5086436;28;20056;-85
2022/09/03 08:31:27;;;;;;;1.73;1.02;;;20.60;62.30;;;;;;5070644;28;20021;-85
2022/09/03 08:33:57;;;;;;;2.22;1.10;;;20.70;62.20;;;;;;5077896;28;20055;-84
2022/09/03 08:36:30;;;;;;;0.98;0.70;;;20.80;62.20;;;;;;5077017;28;20027;-90
2022/09/03 08:39:02;;;;;;;1.23;0.70;;;20.90;62.00;;;;;;5055569;28;20033;-87
2022/09/03 08:41:49;;;;;;;1.75;0.90;;;21.00;61.90;;;;;;5074431;28;20017;-87
2022/09/03 08:44:37;;;;;;;0.77;0.77;;;21.10;61.80;;;;;;5075094;28;20119;-88
2022/09/03 08:47:29;;;;;;;0.95;0.75;;;21.20;61.50;;;;;;5074582;28;20032;-87
2022/09/03 08:50:13;;;;;;;2.05;0.90;;;21.30;61.50;;;;;;5040594;28;20052;-88
2022/09/03 08:53:08;;;;;;;1.40;0.80;;;21.40;60.90;;;;;;5056159;28;20028;-86
2022/09/03 08:55:52;;;;;;;1.58;0.80;;;21.50;60.90;;;;;;5075103;28;20109;-87
2022/09/03 08:58:20;;;;;;;2.53;1.55;;;21.60;60.80;;;;;;5078770;28;20108;-87
2022/09/03 09:01:26;;;;;;;4.38;1.20;;;21.60;60.70;;;;;;5060067;28;20025;-88
2022/09/03 09:04:01;;;;;;;1.77;0.95;;;21.70;60.60;;;;;;5055168;28;20045;-86
2022/09/03 09:06:35;;;;;;;1.70;1.00;;;21.80;60.60;;;;;;5060165;28;20468;-88
2022/09/03 09:09:17;;;;;;;4.40;1.33;;;21.90;60.40;;;;;;5060230;28;20395;-86
2022/09/03 09:12:09;;;;;;;2.92;1.50;;;21.90;60.10;;;;;;5059973;28;20028;-87
2022/09/03 09:15:13;;;;;;;1.27;0.77;;;22.00;59.90;;;;;;5060307;28;20024;-87
2022/09/03 09:17:59;;;;;;;1.00;0.90;;;22.10;59.80;;;;;;5057197;28;20048;-88
2022/09/03 09:20:34;;;;;;;3.05;1.23;;;22.20;59.90;;;;;;5060144;28;20388;-88
2022/09/03 09:23:33;;;;;;;3.63;0.82;;;22.20;59.40;;;;;;5058158;28;20040;-88
2022/09/03 09:26:09;;;;;;;2.00;1.02;;;22.30;59.40;;;;;;5053584;28;20041;-88
2022/09/03 09:29:03;;;;;;;2.95;1.20;;;22.40;59.30;;;;;;5060185;28;20550;-86
2022/09/03 09:31:43;;;;;;;2.70;1.10;;;22.40;59.00;;;;;;5060486;28;20029;-87
2022/09/03 09:34:10;;;;;;;1.95;1.00;;;22.40;58.80;;;;;;5078128;28;20089;-88
2022/09/03 09:36:49;;;;;;;3.83;0.95;;;22.50;58.90;;;;;;5060246;28;20456;-85
2022/09/03 09:39:16;;;;;;;1.45;1.00;;;22.60;58.70;;;;;;5059629;28;20082;-83
2022/09/03 09:41:43;;;;;;;2.40;1.50;;;22.60;58.60;;;;;;5075209;28;20028;-84
2022/09/03 09:44:19;;;;;;;3.10;1.33;;;22.70;58.40;;;;;;5058356;28;20043;-84
2022/09/03 09:46:45;;;;;;;2.75;1.48;;;22.70;59.00;;;;;;5076325;28;20503;-82
2022/09/03 09:49:31;;;;;;;1.63;1.02;;;22.80;58.50;;;;;;5058559;28;20438;-83
2022/09/03 09:52:02;;;;;;;1.90;1.20;;;22.90;58.40;;;;;;5058807;28;20468;-85
2022/09/03 09:54:27;;;;;;;2.78;1.10;;;22.90;58.10;;;;;;5058556;28;20048;-87
2022/09/03 09:57:05;;;;;;;1.33;1.20;;;23.00;58.20;;;;;;5058648;28;20016;-84
2022/09/03 09:59:36;;;;;;;1.75;1.10;;;23.10;58.10;;;;;;5059074;28;20074;-85
2022/09/03 10:02:19;;;;;;;2.60;1.23;;;23.10;57.80;;;;;;5059621;28;20516;-86
2022/09/03 10:04:45;;;;;;;2.50;1.00;;;23.20;57.80;;;;;;5078299;28;20025;-83
2022/09/03 10:07:28;;;;;;;1.23;0.77;;;23.30;57.90;;;;;;5078444;28;20498;-83
2022/09/03 10:09:59;;;;;;;1.80;0.82;;;23.30;58.10;;;;;;5062253;28;20059;-82
2022/09/03 10:12:58;;;;;;;1.77;1.30;;;23.30;57.50;;;;;;5066802;28;20113;-81
2022/09/03 10:15:39;;;;;;;5.43;1.52;;;23.40;57.10;;;;;;5064889;28;20059;-82
2022/09/03 10:18:35;;;;;;;1.30;0.73;;;23.50;56.90;;;;;;5087477;28;20032;-83
2022/09/03 10:21:06;;;;;;;3.47;0.95;;;23.50;56.70;;;;;;5082199;28;20017;-82
2022/09/03 10:23:42;;;;;;;;;;;23.60;56.70;;;;;;5098265;28;20040;-81
2022/09/03 10:26:15;;;;;;;1.08;0.80;;;23.60;56.40;;;;;;5078765;28;19904;-81
2022/09/03 10:28:43;;;;;;;1.83;1.10;;;23.70;56.50;;;;;;5096399;28;20076;-81
2022/09/03 10:31:27;;;;;;;0.70;0.70;;;23.80;56.70;;;;;;5090401;28;20111;-82
2022/09/03 10:34:17;;;;;;;1.13;0.90;;;23.80;56.80;;;;;;5059207;28;20028;-81
2022/09/03 10:37:20;;;;;;;0.90;0.63;;;23.80;56.80;;;;;;5058499;28;20028;-81
2022/09/03 10:40:08;;;;;;;1.90;0.98;;;24.00;56.60;;;;;;5057831;28;20380;-83
2022/09/03 10:43:08;;;;;;;1.02;0.60;;;24.10;56.70;;;;;;5075309;28;20035;-82
2022/09/03 10:45:53;;;;;;;1.80;1.00;;;24.10;56.70;;;;;;4990079;28;20085;-81
2022/09/03 10:48:48;;;;;;;1.63;0.90;;;24.20;56.30;;;;;;5075479;28;20032;-82
2022/09/03 10:51:35;;;;;;;4.43;0.88;;;24.30;56.40;;;;;;5057276;28;20111;-83
2022/09/03 10:54:19;;;;;;;2.10;0.70;;;24.40;56.50;;;;;;5075096;28;20468;-82
2022/09/03 10:56:51;;;;;;;0.93;0.80;;;24.40;56.50;;;;;;5075578;28;20044;-85
2022/09/03 10:59:43;;;;;;;2.80;0.73;;;24.50;56.30;;;;;;5057842;28;20353;-85
2022/09/03 11:02:46;;;;;;;1.52;0.80;;;24.50;56.70;;;;;;5075233;28;20089;-83
2022/09/03 11:05:23;;;;;;;2.55;0.75;;;24.60;56.00;;;;;;5075079;28;20530;-82
2022/09/03 11:07:54;;;;;;;1.88;0.80;;;24.60;55.30;;;;;;5056694;28;20023;-82
2022/09/03 11:10:30;;;;;;;1.67;0.73;;;24.70;55.40;;;;;;5056959;28;20116;-81
2022/09/03 11:13:30;;;;;;;2.63;1.17;;;24.70;55.50;;;;;;5056700;28;20039;-83
2022/09/03 11:16:03;;;;;;;1.13;0.80;;;24.80;55.20;;;;;;5076433;28;20024;-82
2022/09/03 11:18:45;;;;;;;1.67;0.80;;;24.80;55.30;;;;;;5061054;28;20036;-83
2022/09/03 11:21:13;;;;;;;1.20;0.95;;;24.90;55.00;;;;;;5075125;28;20067;-81
2022/09/03 11:23:44;;;;;;;1.55;0.77;;;24.90;55.70;;;;;;5075754;28;20043;-82
2022/09/03 11:26:14;;;;;;;1.35;0.93;;;25.00;55.10;;;;;;5075856;28;20024;-80
2022/09/03 11:29:21;;;;;;;1.20;0.70;;;25.10;55.10;;;;;;5057646;28;20037;-82
2022/09/03 11:31:57;;;;;;;1.02;0.70;;;25.10;55.00;;;;;;4978323;28;20483;-81
2022/09/03 11:34:25;;;;;;;1.33;0.70;;;25.20;55.10;;;;;;4995180;28;20030;-81
2022/09/03 11:36:51;;;;;;;2.05;0.90;;;25.20;55.00;;;;;;5033018;28;20033;-81
2022/09/03 11:39:38;;;;;;;2.33;0.90;;;25.30;54.70;;;;;;5075876;28;20029;-82
2022/09/03 11:42:26;;;;;;;1.85;0.90;;;25.30;54.60;;;;;;5075468;28;20498;-81
2022/09/03 11:44:58;;;;;;;1.08;0.80;;;25.40;54.40;;;;;;5056334;28;20024;-84
2022/09/03 11:47:42;;;;;;;1.48;0.90;;;25.40;54.10;;;;;;5073949;28;20027;-84
2022/09/03 11:50:21;;;;;;;0.85;0.85;;;25.50;54.30;;;;;;5057554;28;20115;-82
2022/09/03 11:52:50;;;;;;;1.50;0.90;;;25.50;54.40;;;;;;5073877;28;20041;-85
2022/09/03 11:55:45;;;;;;;1.52;1.30;;;25.60;54.40;;;;;;5055857;28;20028;-83
2022/09/03 11:58:23;;;;;;;2.92;1.48;;;25.60;54.20;;;;;;5057664;28;20055;-83
2022/09/03 12:00:52;;;;;;;1.65;1.30;;;25.70;54.20;;;;;;5055589;28;20024;-83
2022/09/03 12:03:27;;;;;;;1.42;1.10;;;25.70;54.00;;;;;;5040017;28;20059;-84
2022/09/03 12:06:05;;;;;;;1.50;0.85;;;25.70;53.60;;;;;;5073582;28;20082;-83
2022/09/03 12:08:55;;;;;;;2.80;1.05;;;25.80;53.50;;;;;;5073672;28;20103;-83
2022/09/03 12:11:58;;;;;;;1.17;0.80;;;25.80;53.40;;;;;;5055946;28;20384;-82
2022/09/03 12:14:42;;;;;;;1.20;1.00;;;25.80;53.60;;;;;;5055729;28;20490;-82
2022/09/03 12:17:43;;;;;;;3.20;0.90;;;25.90;53.40;;;;;;5073875;28;20031;-83
2022/09/03 12:20:14;;;;;;;3.20;0.90;;;25.90;53.40;;;;;;5051205;28;20037;-82
2022/09/03 12:22:40;;;;;;;1.55;1.00;;;25.90;53.00;;;;;;5059254;28;20033;-83
2022/09/03 12:25:11;;;;;;;0.95;0.85;;;25.90;53.00;;;;;;5076169;28;20041;-83
2022/09/03 12:27:37;;;;;;;2.50;0.88;;;26.00;53.40;;;;;;5091336;28;20025;-82
2022/09/03 12:30:14;;;;;;;1.13;1.02;;;26.00;53.40;;;;;;5096779;28;20120;-84
2022/09/03 12:32:40;;;;;;;4.38;2.20;;;26.10;53.60;;;;;;5078096;28;20021;-82
2022/09/03 12:35:24;;;;;;;2.97;1.60;;;26.10;53.70;;;;;;5075340;28;20040;-83
2022/09/03 12:37:51;;;;;;;2.15;1.27;;;26.20;53.70;;;;;;5091398;28;20021;-82
2022/09/03 12:40:22;;;;;;;1.45;1.10;;;26.20;53.50;;;;;;5073953;28;20032;-83
2022/09/03 12:42:48;;;;;;;2.50;1.17;;;26.30;53.50;;;;;;5078248;28;20028;-83
2022/09/03 12:45:20;;;;;;;2.08;1.20;;;26.30;53.60;;;;;;5073267;28;20036;-83
2022/09/03 12:47:46;;;;;;;1.13;1.02;;;26.30;53.60;;;;;;5073178;28;20033;-82
2022/09/03 12:50:17;;;;;;;1.60;1.00;;;26.30;53.10;;;;;;5038869;28;20460;-83
2022/09/03 12:52:59;;;;;;;1.20;0.90;;;26.30;53.20;;;;;;5055104;28;20025;-84
2022/09/03 12:55:39;;;;;;;2.90;1.00;;;26.40;53.40;;;;;;5055123;28;20056;-84
2022/09/03 12:58:10;;;;;;;1.75;1.17;;;26.40;53.40;;;;;;5073037;28;20509;-82
2022/09/03 13:00:45;;;;;;;1.35;1.15;;;26.40;53.50;;;;;;5072988;28;20029;-83
2022/09/03 13:03:16;;;;;;;2.83;1.25;;;26.50;53.70;;;;;;5054619;28;20055;-83
2022/09/03 13:05:46;;;;;;;2.53;1.10;;;26.50;53.80;;;;;;5072785;28;20469;-84
2022/09/03 13:08:41;;;;;;;;;;;26.60;53.80;;;;;;5055262;28;20021;-85
2022/09/03 13:11:07;;;;;;;1.95;1.00;;;26.60;53.80;;;;;;5033124;28;20363;-82
2022/09/03 13:13:35;;;;;;;1.10;1.00;;;26.60;53.70;;;;;;5055367;28;20029;-84
2022/09/03 13:16:33;;;;;;;1.20;1.10;;;26.70;53.60;;;;;;5072675;28;20063;-85
2022/09/03 13:19:42;;;;;;;2.38;1.20;;;26.70;53.60;;;;;;5010994;28;20051;-83
2022/09/03 13:22:30;;;;;;;2.30;1.27;;;26.70;53.30;;;;;;5054601;28;20033;-85
2022/09/03 13:25:14;;;;;;;1.88;1.13;;;26.70;54.00;;;;;;5073064;28;20048;-86
2022/09/03 13:28:01;;;;;;;1.75;1.42;;;26.80;53.50;;;;;;5068189;28;20463;-86
2022/09/03 13:30:48;;;;;;;3.95;1.23;;;26.80;53.60;;;;;;5054943;28;20447;-84
2022/09/03 13:33:38;;;;;;;1.85;1.20;;;26.80;52.90;;;;;;5054277;28;20356;-82
2022/09/03 13:36:18;;;;;;;1.83;1.10;;;26.80;53.00;;;;;;5061332;28;20036;-83